sensor_id;sensor_type;location;lat;lon;timestamp;pressure;altitude;pressure_sealevel;temperature;humidity
80128;BME280;69440;52.118;5.408;2023-07-16T00:00:26;100925.41;;;18.50;58.86
80128;BME280;69440;52.118;5.408;2023-07-16T00:02:52;100920.81;;;18.50;58.82
80128;BME280;69440;52.118;5.408;2023-07-16T00:05:19;100924.41;;;18.51;59.34
80128;BME280;69440;52.118;5.408;2023-07-16T00:07:46;100934.44;;;18.50;58.32
80128;BME280;69440;52.118;5.408;2023-07-16T00:10:12;100920.38;;;18.45;58.34
80128;BME280;69440;52.118;5.408;2023-07-16T00:12:39;100926.81;;;18.44;58.24
80128;BME280;69440;52.118;5.408;2023-07-16T00:15:06;100924.38;;;18.41;58.29
80128;BME280;69440;52.118;5.408;2023-07-16T00:17:33;100922.38;;;18.43;58.45
80128;BME280;69440;52.118;5.408;2023-07-16T00:20:01;100922.81;;;18.39;58.18
80128;BME280;69440;52.118;5.408;2023-07-16T00:22:27;100921.09;;;18.38;58.12
80128;BME280;69440;52.118;5.408;2023-07-16T00:24:54;100915.50;;;18.39;58.04
80128;BME280;69440;52.118;5.408;2023-07-16T00:27:20;100918.94;;;18.41;57.95
80128;BME280;69440;52.118;5.408;2023-07-16T00:29:46;100918.06;;;18.41;58.38
80128;BME280;69440;52.118;5.408;2023-07-16T00:32:13;100917.50;;;18.37;58.44
80128;BME280;69440;52.118;5.408;2023-07-16T00:34:39;100927.38;;;18.38;58.14
80128;BME280;69440;52.118;5.408;2023-07-16T00:37:06;100928.50;;;18.36;58.25
80128;BME280;69440;52.118;5.408;2023-07-16T00:39:32;100925.91;;;18.34;58.77
80128;BME280;69440;52.118;5.408;2023-07-16T00:41:59;100936.34;;;18.29;58.35
80128;BME280;69440;52.118;5.408;2023-07-16T00:44:25;100940.94;;;18.28;59.08
80128;BME280;69440;52.118;5.408;2023-07-16T00:46:52;100947.50;;;18.26;58.93
80128;BME280;69440;52.118;5.408;2023-07-16T00:49:18;100944.06;;;18.24;58.76
80128;BME280;69440;52.118;5.408;2023-07-16T00:51:45;100947.06;;;18.21;58.97
80128;BME280;69440;52.118;5.408;2023-07-16T00:54:12;100940.31;;;18.15;59.31
80128;BME280;69440;52.118;5.408;2023-07-16T00:56:39;100946.50;;;18.17;58.99
80128;BME280;69440;52.118;5.408;2023-07-16T00:59:06;100946.31;;;18.09;59.14
80128;BME280;69440;52.118;5.408;2023-07-16T01:01:32;100953.63;;;18.09;59.23
80128;BME280;69440;52.118;5.408;2023-07-16T01:03:59;100951.75;;;18.09;59.37
80128;BME280;69440;52.118;5.408;2023-07-16T01:06:33;100950.16;;;18.07;59.67
80128;BME280;69440;52.118;5.408;2023-07-16T01:09:03;100944.84;;;18.05;59.79
80128;BME280;69440;52.118;5.408;2023-07-16T01:11:47;100956.72;;;18.04;59.89
80128;BME280;69440;52.118;5.408;2023-07-16T01:17:45;100936.38;;;17.98;59.77
80128;BME280;69440;52.118;5.408;2023-07-16T01:20:12;100937.94;;;18.01;59.90
80128;BME280;69440;52.118;5.408;2023-07-16T01:22:52;100934.50;;;17.99;59.95
80128;BME280;69440;52.118;5.408;2023-07-16T01:31:00;100927.63;;;17.95;60.11
80128;BME280;69440;52.118;5.408;2023-07-16T01:33:27;100933.78;;;17.97;60.02
80128;BME280;69440;52.118;5.408;2023-07-16T01:35:54;100935.78;;;17.95;60.16
80128;BME280;69440;52.118;5.408;2023-07-16T01:38:22;100936.19;;;17.90;60.36
80128;BME280;69440;52.118;5.408;2023-07-16T01:40:49;100925.72;;;17.86;60.47
80128;BME280;69440;52.118;5.408;2023-07-16T01:43:16;100936.31;;;17.89;60.70
80128;BME280;69440;52.118;5.408;2023-07-16T01:45:42;100934.34;;;17.91;60.53
80128;BME280;69440;52.118;5.408;2023-07-16T01:48:31;100938.78;;;17.92;60.39
80128;BME280;69440;52.118;5.408;2023-07-16T01:50:58;100931.75;;;17.89;60.55
80128;BME280;69440;52.118;5.408;2023-07-16T01:53:25;100934.88;;;17.85;60.78
80128;BME280;69440;52.118;5.408;2023-07-16T01:55:51;100936.72;;;17.84;60.81
80128;BME280;69440;52.118;5.408;2023-07-16T01:58:18;100935.75;;;17.85;60.94
80128;BME280;69440;52.118;5.408;2023-07-16T02:00:45;100936.72;;;17.84;61.06
80128;BME280;69440;52.118;5.408;2023-07-16T02:03:12;100937.16;;;17.80;61.10
80128;BME280;69440;52.118;5.408;2023-07-16T02:05:38;100935.69;;;17.76;61.42
80128;BME280;69440;52.118;5.408;2023-07-16T02:08:05;100942.38;;;17.72;61.32
80128;BME280;69440;52.118;5.408;2023-07-16T02:10:31;100937.78;;;17.72;61.59
80128;BME280;69440;52.118;5.408;2023-07-16T02:12:58;100940.50;;;17.72;61.92
80128;BME280;69440;52.118;5.408;2023-07-16T02:15:24;100934.34;;;17.70;62.12
80128;BME280;69440;52.118;5.408;2023-07-16T02:17:51;100945.50;;;17.67;62.25
80128;BME280;69440;52.118;5.408;2023-07-16T02:20:17;100940.16;;;17.65;62.88
80128;BME280;69440;52.118;5.408;2023-07-16T02:22:44;100940.91;;;17.67;62.53
80128;BME280;69440;52.118;5.408;2023-07-16T02:25:11;100935.72;;;17.64;62.67
80128;BME280;69440;52.118;5.408;2023-07-16T02:27:37;100931.00;;;17.66;62.73
80128;BME280;69440;52.118;5.408;2023-07-16T02:30:04;100938.06;;;17.69;62.68
80128;BME280;69440;52.118;5.408;2023-07-16T02:32:32;100936.97;;;17.60;62.85
80128;BME280;69440;52.118;5.408;2023-07-16T02:35:00;100942.56;;;17.59;63.22
80128;BME280;69440;52.118;5.408;2023-07-16T02:37:26;100944.00;;;17.63;63.26
80128;BME280;69440;52.118;5.408;2023-07-16T02:39:53;100941.44;;;17.61;63.47
80128;BME280;69440;52.118;5.408;2023-07-16T02:42:19;100940.56;;;17.61;63.37
80128;BME280;69440;52.118;5.408;2023-07-16T02:44:46;100940.56;;;17.61;63.41
80128;BME280;69440;52.118;5.408;2023-07-16T02:47:12;100942.16;;;17.63;63.51
80128;BME280;69440;52.118;5.408;2023-07-16T02:49:39;100945.34;;;17.68;63.59
80128;BME280;69440;52.118;5.408;2023-07-16T02:52:06;100943.63;;;17.67;63.54
80128;BME280;69440;52.118;5.408;2023-07-16T02:54:35;100947.94;;;17.70;63.67
80128;BME280;69440;52.118;5.408;2023-07-16T02:57:01;100945.09;;;17.72;63.67
80128;BME280;69440;52.118;5.408;2023-07-16T02:59:28;100946.94;;;17.71;63.42
80128;BME280;69440;52.118;5.408;2023-07-16T03:01:55;100949.31;;;17.64;63.45
80128;BME280;69440;52.118;5.408;2023-07-16T03:04:21;100949.16;;;17.66;63.81
80128;BME280;69440;52.118;5.408;2023-07-16T03:06:48;100952.44;;;17.60;63.70
80128;BME280;69440;52.118;5.408;2023-07-16T03:09:14;100960.84;;;17.57;63.61
80128;BME280;69440;52.118;5.408;2023-07-16T03:11:41;100961.59;;;17.59;63.63
80128;BME280;69440;52.118;5.408;2023-07-16T03:14:07;100948.25;;;17.56;63.74
80128;BME280;69440;52.118;5.408;2023-07-16T03:16:34;100945.81;;;17.53;64.24
80128;BME280;69440;52.118;5.408;2023-07-16T03:19:00;100958.22;;;17.46;63.96
80128;BME280;69440;52.118;5.408;2023-07-16T03:21:29;100964.75;;;17.43;64.23
80128;BME280;69440;52.118;5.408;2023-07-16T03:23:56;100965.88;;;17.41;64.55
80128;BME280;69440;52.118;5.408;2023-07-16T03:26:22;100957.34;;;17.45;64.17
80128;BME280;69440;52.118;5.408;2023-07-16T03:28:48;100956.72;;;17.42;64.28
80128;BME280;69440;52.118;5.408;2023-07-16T03:31:15;100955.59;;;17.44;64.31
80128;BME280;69440;52.118;5.408;2023-07-16T03:33:41;100954.88;;;17.42;64.35
80128;BME280;69440;52.118;5.408;2023-07-16T03:36:08;100961.56;;;17.38;64.79
80128;BME280;69440;52.118;5.408;2023-07-16T03:38:34;100967.84;;;17.38;64.71
80128;BME280;69440;52.118;5.408;2023-07-16T03:41:01;100960.44;;;17.41;64.25
80128;BME280;69440;52.118;5.408;2023-07-16T03:43:28;100968.44;;;17.42;64.57
80128;BME280;69440;52.118;5.408;2023-07-16T03:45:55;100965.72;;;17.42;64.44
80128;BME280;69440;52.118;5.408;2023-07-16T03:48:21;100978.59;;;17.40;64.48
80128;BME280;69440;52.118;5.408;2023-07-16T03:50:48;100984.88;;;17.41;64.46
80128;BME280;69440;52.118;5.408;2023-07-16T03:53:14;100997.88;;;17.37;64.28
80128;BME280;69440;52.118;5.408;2023-07-16T03:55:41;100988.88;;;17.36;64.53
80128;BME280;69440;52.118;5.408;2023-07-16T03:58:07;100988.41;;;17.31;64.55
80128;BME280;69440;52.118;5.408;2023-07-16T04:00:33;100988.53;;;17.30;64.64
80128;BME280;69440;52.118;5.408;2023-07-16T04:03:00;100995.94;;;17.28;64.85
80128;BME280;69440;52.118;5.408;2023-07-16T04:05:27;100995.09;;;17.27;64.47
80128;BME280;69440;52.118;5.408;2023-07-16T04:07:53;100998.94;;;17.25;64.19
80128;BME280;69440;52.118;5.408;2023-07-16T04:10:20;101003.25;;;17.27;64.47
80128;BME280;69440;52.118;5.408;2023-07-16T04:12:46;100987.94;;;17.26;64.60
80128;BME280;69440;52.118;5.408;2023-07-16T04:15:13;101000.78;;;17.24;64.74
80128;BME280;69440;52.118;5.408;2023-07-16T04:17:39;101008.19;;;17.22;64.80
80128;BME280;69440;52.118;5.408;2023-07-16T04:20:06;101010.31;;;17.19;64.58
80128;BME280;69440;52.118;5.408;2023-07-16T04:22:34;101000.06;;;17.22;64.96
80128;BME280;69440;52.118;5.408;2023-07-16T04:25:01;101022.53;;;17.24;64.62
80128;BME280;69440;52.118;5.408;2023-07-16T04:27:27;101010.91;;;17.22;64.62
80128;BME280;69440;52.118;5.408;2023-07-16T04:29:54;101008.06;;;17.24;64.77
80128;BME280;69440;52.118;5.408;2023-07-16T04:32:21;101024.13;;;17.27;64.72
80128;BME280;69440;52.118;5.408;2023-07-16T04:34:48;101022.53;;;17.24;64.36
80128;BME280;69440;52.118;5.408;2023-07-16T04:37:14;101024.38;;;17.24;64.67
80128;BME280;69440;52.118;5.408;2023-07-16T04:39:41;101028.56;;;17.28;64.33
80128;BME280;69440;52.118;5.408;2023-07-16T04:42:07;101025.97;;;17.26;64.05
80128;BME280;69440;52.118;5.408;2023-07-16T04:44:34;101030.28;;;17.29;64.01
80128;BME280;69440;52.118;5.408;2023-07-16T04:47:00;101044.34;;;17.34;64.25
80128;BME280;69440;52.118;5.408;2023-07-16T04:49:26;101040.63;;;17.35;64.10
80128;BME280;69440;52.118;5.408;2023-07-16T04:51:53;101038.91;;;17.34;64.06
80128;BME280;69440;52.118;5.408;2023-07-16T04:54:19;101035.31;;;17.33;64.18
80128;BME280;69440;52.118;5.408;2023-07-16T04:56:46;101034.06;;;17.37;63.90
80128;BME280;69440;52.118;5.408;2023-07-16T04:59:12;101044.06;;;17.37;63.52
80128;BME280;69440;52.118;5.408;2023-07-16T05:01:39;101039.50;;;17.37;63.79
80128;BME280;69440;52.118;5.408;2023-07-16T05:04:05;101044.94;;;17.37;63.89
80128;BME280;69440;52.118;5.408;2023-07-16T05:06:32;101047.53;;;17.39;63.76
80128;BME280;69440;52.118;5.408;2023-07-16T05:08:58;101052.09;;;17.38;63.70
80128;BME280;69440;52.118;5.408;2023-07-16T05:11:25;101043.56;;;17.43;63.71
80128;BME280;69440;52.118;5.408;2023-07-16T05:13:52;101048.84;;;17.45;63.69
80128;BME280;69440;52.118;5.408;2023-07-16T05:16:19;101047.13;;;17.44;63.82
80128;BME280;69440;52.118;5.408;2023-07-16T05:18:45;101039.75;;;17.46;63.72
80128;BME280;69440;52.118;5.408;2023-07-16T05:21:13;101035.91;;;17.48;63.02
80128;BME280;69440;52.118;5.408;2023-07-16T05:23:40;101037.50;;;17.51;63.21
80128;BME280;69440;52.118;5.408;2023-07-16T05:26:06;101044.25;;;17.56;63.15
80128;BME280;69440;52.118;5.408;2023-07-16T05:28:33;101045.84;;;17.59;62.84
80128;BME280;69440;52.118;5.408;2023-07-16T05:31:00;101044.97;;;17.58;62.99
80128;BME280;69440;52.118;5.408;2023-07-16T05:33:27;101053.13;;;17.58;62.30
80128;BME280;69440;52.118;5.408;2023-07-16T05:35:54;101059.03;;;17.63;62.53
80128;BME280;69440;52.118;5.408;2023-07-16T05:38:21;101059.78;;;17.65;62.31
80128;BME280;69440;52.118;5.408;2023-07-16T05:40:48;101065.47;;;17.62;62.14
80128;BME280;69440;52.118;5.408;2023-07-16T05:43:14;101070.28;;;17.70;62.04
80128;BME280;69440;52.118;5.408;2023-07-16T05:45:41;101074.59;;;17.73;61.87
80128;BME280;69440;52.118;5.408;2023-07-16T05:48:07;101088.81;;;17.76;61.53
80128;BME280;69440;52.118;5.408;2023-07-16T05:50:34;101083.47;;;17.75;61.86
80128;BME280;69440;52.118;5.408;2023-07-16T05:53:00;101091.28;;;17.79;61.99
80128;BME280;69440;52.118;5.408;2023-07-16T05:55:27;101092.59;;;17.85;62.11
80128;BME280;69440;52.118;5.408;2023-07-16T05:57:57;101080.88;;;17.84;61.69
80128;BME280;69440;52.118;5.408;2023-07-16T06:00:23;101099.63;;;17.87;61.79
80128;BME280;69440;52.118;5.408;2023-07-16T06:02:50;101091.34;;;17.89;61.46
80128;BME280;69440;52.118;5.408;2023-07-16T06:05:17;101102.28;;;17.98;62.29
80128;BME280;69440;52.118;5.408;2023-07-16T06:07:44;101089.41;;;18.00;60.75
80128;BME280;69440;52.118;5.408;2023-07-16T06:10:10;101085.69;;;18.02;60.94
80128;BME280;69440;52.118;5.408;2023-07-16T06:12:37;101096.06;;;18.08;61.45
80128;BME280;69440;52.118;5.408;2023-07-16T06:15:04;101105.44;;;18.15;61.38
80128;BME280;69440;52.118;5.408;2023-07-16T06:17:30;101096.25;;;18.16;60.49
80128;BME280;69440;52.118;5.408;2023-07-16T06:19:57;101106.03;;;18.18;60.67
80128;BME280;69440;52.118;5.408;2023-07-16T06:22:24;101107.00;;;18.17;60.28
80128;BME280;69440;52.118;5.408;2023-07-16T06:24:50;101110.59;;;18.18;60.11
80128;BME280;69440;52.118;5.408;2023-07-16T06:27:17;101122.34;;;18.18;60.03
80128;BME280;69440;52.118;5.408;2023-07-16T06:29:43;101109.47;;;18.20;60.48
80128;BME280;69440;52.118;5.408;2023-07-16T06:32:10;101119.53;;;18.29;60.63
80128;BME280;69440;52.118;5.408;2023-07-16T06:34:36;101112.09;;;18.31;59.99
80128;BME280;69440;52.118;5.408;2023-07-16T06:37:03;101112.69;;;18.35;60.20
80128;BME280;69440;52.118;5.408;2023-07-16T06:39:30;101117.16;;;18.36;59.67
80128;BME280;69440;52.118;5.408;2023-07-16T06:41:57;101107.47;;;18.43;60.71
80128;BME280;69440;52.118;5.408;2023-07-16T06:44:23;101112.09;;;18.52;60.33
80128;BME280;69440;52.118;5.408;2023-07-16T06:46:50;101109.09;;;18.55;60.15
80128;BME280;69440;52.118;5.408;2023-07-16T06:49:16;101113.56;;;18.56;60.15
80128;BME280;69440;52.118;5.408;2023-07-16T06:51:43;101112.41;;;18.59;59.82
80128;BME280;69440;52.118;5.408;2023-07-16T06:54:10;101104.72;;;18.64;59.85
80128;BME280;69440;52.118;5.408;2023-07-16T06:56:36;101115.97;;;18.71;59.57
80128;BME280;69440;52.118;5.408;2023-07-16T06:59:02;101125.72;;;18.73;60.19
80128;BME280;69440;52.118;5.408;2023-07-16T07:01:29;101113.56;;;18.77;59.26
80128;BME280;69440;52.118;5.408;2023-07-16T07:03:56;101129.63;;;18.80;59.22
80128;BME280;69440;52.118;5.408;2023-07-16T07:06:22;101127.63;;;18.82;59.21
80128;BME280;69440;52.118;5.408;2023-07-16T07:08:51;101125.06;;;18.90;59.48
80128;BME280;69440;52.118;5.408;2023-07-16T07:11:18;101142.19;;;19.02;59.11
80128;BME280;69440;52.118;5.408;2023-07-16T07:13:45;101144.78;;;19.04;58.57
80128;BME280;69440;52.118;5.408;2023-07-16T07:16:11;101142.84;;;18.95;59.23
80128;BME280;69440;52.118;5.408;2023-07-16T07:18:38;101134.88;;;19.03;59.51
80128;BME280;69440;52.118;5.408;2023-07-16T07:21:04;101145.09;;;19.20;58.72
80128;BME280;69440;52.118;5.408;2023-07-16T07:23:31;101166.19;;;19.18;58.82
80128;BME280;69440;52.118;5.408;2023-07-16T07:25:57;101156.31;;;19.27;59.11
80128;BME280;69440;52.118;5.408;2023-07-16T07:28:24;101154.50;;;19.37;59.18
80128;BME280;69440;52.118;5.408;2023-07-16T07:30:50;101170.13;;;19.35;58.42
80128;BME280;69440;52.118;5.408;2023-07-16T07:33:17;101171.84;;;19.36;58.58
80128;BME280;69440;52.118;5.408;2023-07-16T07:35:43;101169.84;;;19.38;58.56
80128;BME280;69440;52.118;5.408;2023-07-16T07:38:10;101160.69;;;19.48;58.55
80128;BME280;69440;52.118;5.408;2023-07-16T07:40:36;101166.13;;;19.39;58.79
80128;BME280;69440;52.118;5.408;2023-07-16T07:43:03;101174.00;;;19.32;59.20
80128;BME280;69440;52.118;5.408;2023-07-16T07:45:29;101169.13;;;19.36;58.48
80128;BME280;69440;52.118;5.408;2023-07-16T07:47:56;101170.00;;;19.46;59.01
80128;BME280;69440;52.118;5.408;2023-07-16T07:50:22;101176.56;;;19.64;58.60
80128;BME280;69440;52.118;5.408;2023-07-16T07:52:50;101186.47;;;19.65;58.54
80128;BME280;69440;52.118;5.408;2023-07-16T07:55:16;101178.19;;;19.46;58.15
80128;BME280;69440;52.118;5.408;2023-07-16T07:57:43;101182.47;;;19.39;58.90
80128;BME280;69440;52.118;5.408;2023-07-16T08:00:09;101193.09;;;19.42;59.34
80128;BME280;69440;52.118;5.408;2023-07-16T08:02:38;101192.25;;;19.41;58.54
80128;BME280;69440;52.118;5.408;2023-07-16T08:05:06;101187.06;;;19.38;59.06
80128;BME280;69440;52.118;5.408;2023-07-16T08:07:32;101202.84;;;19.35;58.50
80128;BME280;69440;52.118;5.408;2023-07-16T08:09:59;101202.72;;;19.36;59.02
80128;BME280;69440;52.118;5.408;2023-07-16T08:12:26;101193.75;;;19.55;59.54
80128;BME280;69440;52.118;5.408;2023-07-16T08:14:52;101191.06;;;19.65;59.29
80128;BME280;69440;52.118;5.408;2023-07-16T08:17:18;101201.38;;;19.61;59.02
80128;BME280;69440;52.118;5.408;2023-07-16T08:19:49;101209.81;;;19.58;58.95
80128;BME280;69440;52.118;5.408;2023-07-16T08:22:15;101213.00;;;19.63;59.22
80128;BME280;69440;52.118;5.408;2023-07-16T08:24:42;101210.72;;;19.78;59.71
80128;BME280;69440;52.118;5.408;2023-07-16T08:27:08;101206.00;;;19.90;60.09
80128;BME280;69440;52.118;5.408;2023-07-16T08:29:36;101202.88;;;20.04;59.35
80128;BME280;69440;52.118;5.408;2023-07-16T08:32:02;101208.75;;;19.99;58.76
80128;BME280;69440;52.118;5.408;2023-07-16T08:34:29;101209.47;;;19.92;58.48
80128;BME280;69440;52.118;5.408;2023-07-16T08:36:56;101208.00;;;19.88;58.70
80128;BME280;69440;52.118;5.408;2023-07-16T08:39:22;101258.13;;;19.87;58.90
80128;BME280;69440;52.118;5.408;2023-07-16T08:41:51;101220.94;;;19.76;58.38
80128;BME280;69440;52.118;5.408;2023-07-16T08:44:18;101227.09;;;19.68;59.62
80128;BME280;69440;52.118;5.408;2023-07-16T08:46:45;101232.84;;;19.65;59.38
80128;BME280;69440;52.118;5.408;2023-07-16T08:49:12;101231.91;;;19.55;59.80
80128;BME280;69440;52.118;5.408;2023-07-16T08:51:39;101235.16;;;19.49;58.98
80128;BME280;69440;52.118;5.408;2023-07-16T08:54:06;101241.09;;;19.54;59.73
80128;BME280;69440;52.118;5.408;2023-07-16T08:56:32;101246.34;;;19.46;59.92
80128;BME280;69440;52.118;5.408;2023-07-16T08:58:59;101244.94;;;19.51;59.37
80128;BME280;69440;52.118;5.408;2023-07-16T09:01:26;101246.66;;;19.52;60.17
80128;BME280;69440;52.118;5.408;2023-07-16T09:03:54;101243.88;;;19.64;59.92
80128;BME280;69440;52.118;5.408;2023-07-16T09:06:20;101257.66;;;19.62;59.83
80128;BME280;69440;52.118;5.408;2023-07-16T09:08:47;101249.91;;;19.67;59.73
80128;BME280;69440;52.118;5.408;2023-07-16T09:11:13;101252.88;;;20.04;58.79
80128;BME280;69440;52.118;5.408;2023-07-16T09:13:44;101242.81;;;20.34;58.95
80128;BME280;69440;52.118;5.408;2023-07-16T09:16:11;101251.75;;;20.45;58.87
80128;BME280;69440;52.118;5.408;2023-07-16T09:18:39;101246.44;;;20.44;57.97
80128;BME280;69440;52.118;5.408;2023-07-16T09:21:06;101259.66;;;20.29;57.61
80128;BME280;69440;52.118;5.408;2023-07-16T09:23:33;101253.59;;;20.16;57.71
80128;BME280;69440;52.118;5.408;2023-07-16T09:26:00;101291.66;;;20.17;58.20
80128;BME280;69440;52.118;5.408;2023-07-16T09:28:27;101302.84;;;20.05;58.26
80128;BME280;69440;52.118;5.408;2023-07-16T09:30:53;101277.84;;;20.00;57.40
80128;BME280;69440;52.118;5.408;2023-07-16T09:33:21;101274.53;;;19.96;58.21
80128;BME280;69440;52.118;5.408;2023-07-16T09:35:49;101269.41;;;20.32;58.74
80128;BME280;69440;52.118;5.408;2023-07-16T09:38:17;101279.19;;;20.34;56.42
80128;BME280;69440;52.118;5.408;2023-07-16T09:40:44;101270.59;;;20.49;55.52
80128;BME280;69440;52.118;5.408;2023-07-16T09:43:12;101256.38;;;20.45;55.84
80128;BME280;69440;52.118;5.408;2023-07-16T09:45:39;101257.06;;;20.47;56.35
80128;BME280;69440;52.118;5.408;2023-07-16T09:48:06;101275.66;;;20.53;57.32
80128;BME280;69440;52.118;5.408;2023-07-16T09:50:33;101269.88;;;20.46;56.56
80128;BME280;69440;52.118;5.408;2023-07-16T09:53:03;101274.34;;;20.57;56.65
80128;BME280;69440;52.118;5.408;2023-07-16T09:55:34;101302.22;;;20.61;56.24
80128;BME280;69440;52.118;5.408;2023-07-16T09:58:06;101280.97;;;20.55;56.35
80128;BME280;69440;52.118;5.408;2023-07-16T10:00:34;101283.13;;;20.51;56.85
80128;BME280;69440;52.118;5.408;2023-07-16T10:03:02;101286.72;;;20.52;57.37
80128;BME280;69440;52.118;5.408;2023-07-16T10:05:28;101286.53;;;20.43;57.38
80128;BME280;69440;52.118;5.408;2023-07-16T10:07:59;101289.56;;;20.40;57.30
80128;BME280;69440;52.118;5.408;2023-07-16T10:10:38;101302.34;;;20.40;57.27
80128;BME280;69440;52.118;5.408;2023-07-16T10:13:07;101338.91;;;20.58;57.41
80128;BME280;69440;52.118;5.408;2023-07-16T10:15:34;101296.88;;;20.78;56.58
80128;BME280;69440;52.118;5.408;2023-07-16T10:18:01;101288.38;;;21.01;55.84
80128;BME280;69440;52.118;5.408;2023-07-16T10:20:29;101308.91;;;21.34;55.55
80128;BME280;69440;52.118;5.408;2023-07-16T10:22:56;101295.63;;;21.49;54.62
80128;BME280;69440;52.118;5.408;2023-07-16T10:25:25;101313.19;;;21.46;55.33
80128;BME280;69440;52.118;5.408;2023-07-16T10:27:53;101304.03;;;21.18;54.95
80128;BME280;69440;52.118;5.408;2023-07-16T10:30:20;101312.56;;;20.86;55.77
80128;BME280;69440;52.118;5.408;2023-07-16T10:32:47;101316.03;;;20.69;56.74
80128;BME280;69440;52.118;5.408;2023-07-16T10:35:14;101316.31;;;20.56;57.42
80128;BME280;69440;52.118;5.408;2023-07-16T10:37:40;101340.59;;;20.50;57.66
80128;BME280;69440;52.118;5.408;2023-07-16T10:40:11;101335.25;;;20.38;56.81
80128;BME280;69440;52.118;5.408;2023-07-16T10:42:41;101330.53;;;20.40;57.28
80128;BME280;69440;52.118;5.408;2023-07-16T10:45:13;101327.78;;;20.50;57.14
80128;BME280;69440;52.118;5.408;2023-07-16T10:47:51;101334.84;;;20.72;56.96
80128;BME280;69440;52.118;5.408;2023-07-16T10:50:19;101339.44;;;20.81;56.00
80128;BME280;69440;52.118;5.408;2023-07-16T10:52:52;101335.84;;;20.81;56.40
80128;BME280;69440;52.118;5.408;2023-07-16T10:55:20;101340.03;;;20.94;56.53
80128;BME280;69440;52.118;5.408;2023-07-16T10:57:47;101336.88;;;20.89;56.08
80128;BME280;69440;52.118;5.408;2023-07-16T11:00:16;101344.19;;;20.98;57.27
80128;BME280;69440;52.118;5.408;2023-07-16T11:02:43;101345.75;;;21.11;56.21
80128;BME280;69440;52.118;5.408;2023-07-16T11:05:11;101343.03;;;21.20;56.22
80128;BME280;69440;52.118;5.408;2023-07-16T11:07:37;101347.91;;;21.36;55.40
80128;BME280;69440;52.118;5.408;2023-07-16T11:10:04;101349.31;;;21.40;55.78
80128;BME280;69440;52.118;5.408;2023-07-16T11:12:31;101369.94;;;21.34;55.85
80128;BME280;69440;52.118;5.408;2023-07-16T11:14:58;101343.84;;;21.50;56.18
80128;BME280;69440;52.118;5.408;2023-07-16T11:17:24;101341.53;;;21.55;56.15
80128;BME280;69440;52.118;5.408;2023-07-16T11:19:52;101345.31;;;21.44;56.39
80128;BME280;69440;52.118;5.408;2023-07-16T11:22:19;101367.22;;;21.25;56.96
80128;BME280;69440;52.118;5.408;2023-07-16T11:24:50;101368.34;;;21.22;57.67
80128;BME280;69440;52.118;5.408;2023-07-16T11:27:19;101356.84;;;21.28;55.66
80128;BME280;69440;52.118;5.408;2023-07-16T11:29:51;101351.97;;;21.13;56.05
80128;BME280;69440;52.118;5.408;2023-07-16T11:34:58;101359.28;;;21.02;56.38
80128;BME280;69440;52.118;5.408;2023-07-16T11:37:25;101383.47;;;21.07;56.87
80128;BME280;69440;52.118;5.408;2023-07-16T11:40:03;101371.94;;;21.23;56.19
80128;BME280;69440;52.118;5.408;2023-07-16T11:42:31;101370.59;;;21.56;55.14
80128;BME280;69440;52.118;5.408;2023-07-16T11:44:58;101372.75;;;22.09;54.35
80128;BME280;69440;52.118;5.408;2023-07-16T11:47:25;101387.38;;;22.17;52.67
80128;BME280;69440;52.118;5.408;2023-07-16T11:49:52;101397.72;;;21.86;52.46
80128;BME280;69440;52.118;5.408;2023-07-16T11:52:21;101375.03;;;22.04;52.90
80128;BME280;69440;52.118;5.408;2023-07-16T11:54:47;101390.94;;;22.27;53.80
80128;BME280;69440;52.118;5.408;2023-07-16T11:57:15;101372.94;;;22.70;49.77
80128;BME280;69440;52.118;5.408;2023-07-16T11:59:42;101387.53;;;22.61;48.76
80128;BME280;69440;52.118;5.408;2023-07-16T12:02:09;101397.16;;;22.47;49.60
80128;BME280;69440;52.118;5.408;2023-07-16T12:04:35;101379.47;;;22.59;50.70
80128;BME280;69440;52.118;5.408;2023-07-16T12:07:02;101395.84;;;22.51;50.12
80128;BME280;69440;52.118;5.408;2023-07-16T12:09:29;101392.44;;;22.67;50.04
80128;BME280;69440;52.118;5.408;2023-07-16T12:11:56;101400.75;;;23.11;50.86
80128;BME280;69440;52.118;5.408;2023-07-16T12:14:22;101384.53;;;23.43;47.25
80128;BME280;69440;52.118;5.408;2023-07-16T12:16:49;101369.41;;;23.57;47.42
80128;BME280;69440;52.118;5.408;2023-07-16T12:19:15;101400.03;;;23.52;47.35
80128;BME280;69440;52.118;5.408;2023-07-16T12:21:42;101396.00;;;23.39;47.04
80128;BME280;69440;52.118;5.408;2023-07-16T12:24:08;101407.09;;;23.29;47.94
80128;BME280;69440;52.118;5.408;2023-07-16T12:26:35;101393.81;;;23.60;48.47
80128;BME280;69440;52.118;5.408;2023-07-16T12:29:02;101387.88;;;23.73;47.34
80128;BME280;69440;52.118;5.408;2023-07-16T12:31:31;101380.44;;;23.91;47.81
80128;BME280;69440;52.118;5.408;2023-07-16T12:33:59;101381.94;;;24.20;47.17
80128;BME280;69440;52.118;5.408;2023-07-16T12:36:26;101398.03;;;23.80;47.13
80128;BME280;69440;52.118;5.408;2023-07-16T12:38:53;101406.19;;;23.64;47.16
80128;BME280;69440;52.118;5.408;2023-07-16T12:41:19;101398.47;;;24.28;45.35
80128;BME280;69440;52.118;5.408;2023-07-16T12:43:47;101392.19;;;24.17;45.59
80128;BME280;69440;52.118;5.408;2023-07-16T12:46:13;101414.66;;;24.39;45.23
80128;BME280;69440;52.118;5.408;2023-07-16T12:48:40;101395.31;;;24.73;43.42
80128;BME280;69440;52.118;5.408;2023-07-16T12:51:08;101395.59;;;24.45;43.97
80128;BME280;69440;52.118;5.408;2023-07-16T12:53:34;101407.88;;;24.67;43.46
80128;BME280;69440;52.118;5.408;2023-07-16T12:56:01;101388.44;;;24.53;44.37
80128;BME280;69440;52.118;5.408;2023-07-16T12:58:27;101403.03;;;24.53;44.23
80128;BME280;69440;52.118;5.408;2023-07-16T13:00:54;101402.94;;;24.87;44.70